createdAt,value
2018-11-20T00:00:45.790Z,98079.70
2018-11-20T00:03:38.908Z,98080.64
2018-11-20T00:06:44.497Z,98076.10
2018-11-20T00:09:30.096Z,98072.94
2018-11-20T00:12:09.807Z,98066.34
2018-11-20T00:14:56.127Z,98068.26
2018-11-20T00:17:46.122Z,98072.51
2018-11-20T00:20:35.565Z,98068.33
2018-11-20T00:23:25.410Z,98064.95
2018-11-20T00:26:04.846Z,98061.79
2018-11-20T00:28:45.848Z,98062.34
2018-11-20T00:31:25.891Z,98058.09
2018-11-20T00:34:11.608Z,98063.44
2018-11-20T00:37:01.390Z,98068.08
2018-11-20T00:39:51.358Z,98050.77
2018-11-20T00:42:29.124Z,98049.13
2018-11-20T00:45:15.834Z,98048.73
2018-11-20T00:48:01.601Z,98046.44
2018-11-20T00:51:03.235Z,98040.99
2018-11-20T00:53:50.399Z,98039.17
2018-11-20T00:57:21.344Z,98037.80
2018-11-20T01:00:14.674Z,98035.44
2018-11-20T01:03:02.809Z,98031.48
2018-11-20T01:05:54.203Z,98033.27
2018-11-20T01:08:31.490Z,98031.73
2018-11-20T01:11:28.092Z,98028.52
2018-11-20T01:14:14.257Z,98030.94
2018-11-20T01:17:03.321Z,98023.78
2018-11-20T01:20:02.905Z,98023.08
2018-11-20T01:23:02.818Z,98016.45
2018-11-20T01:25:59.296Z,98005.23
2018-11-20T01:28:45.040Z,97998.30
2018-11-20T01:31:23.600Z,98000.19
2018-11-20T01:34:13.765Z,97999.06
2018-11-20T01:36:56.579Z,97991.13
2018-11-20T01:39:42.556Z,97997.12
2018-11-20T01:42:44.910Z,97989.13
2018-11-20T01:45:30.919Z,97986.92
2018-11-20T01:48:19.585Z,97995.87
2018-11-20T01:51:19.054Z,97988.73
2018-11-20T01:54:04.648Z,97982.81
2018-11-20T01:57:00.653Z,97983.25
2018-11-20T01:59:47.497Z,97988.77
2018-11-20T02:02:43.955Z,97975.52
2018-11-20T02:05:30.139Z,97968.05
2018-11-20T02:08:33.293Z,97970.06
2018-11-20T02:11:28.159Z,97967.22
2018-11-20T02:14:26.722Z,97971.06
2018-11-20T02:17:21.461Z,97966.92
2018-11-20T02:20:14.471Z,97969.28
2018-11-20T02:23:01.691Z,97958.33
2018-11-20T02:26:07.511Z,97956.58
2018-11-20T02:28:54.976Z,97958.14
2018-11-20T02:31:43.229Z,97963.36
2018-11-20T02:34:43.302Z,97920.02
2018-11-20T02:37:31.448Z,97961.27
2018-11-20T02:40:27.987Z,97967.03
2018-11-20T02:43:19.679Z,97956.73
2018-11-20T02:45:54.663Z,97966.74
2018-11-20T02:48:50.821Z,97957.63
2018-11-20T02:51:45.929Z,97953.67
2018-11-20T02:54:31.771Z,97939.42
2018-11-20T02:57:21.640Z,97936.15
2018-11-20T03:00:07.304Z,97933.06
2018-11-20T03:03:00.179Z,97931.08
2018-11-20T03:05:56.144Z,97928.53
2018-11-20T03:08:45.825Z,97929.73
2018-11-20T03:11:42.272Z,97924.81
2018-11-20T03:14:28.503Z,97921.48
2018-11-20T03:17:12.968Z,97919.29
2018-11-20T03:19:58.484Z,97915.47
2018-11-20T03:22:44.235Z,97912.28
2018-11-20T03:25:54.438Z,97910.75
2018-11-20T03:28:38.090Z,97906.58
2018-11-20T03:31:24.065Z,97903.01
2018-11-20T03:34:21.524Z,97901.56
2018-11-20T03:37:08.045Z,97910.86
2018-11-20T03:39:53.589Z,97911.75
2018-11-20T03:42:41.210Z,97911.53
2018-11-20T03:45:17.875Z,97912.99
2018-11-20T03:48:16.991Z,97927.06
2018-11-20T03:51:00.314Z,97924.92
2018-11-20T03:53:59.201Z,97923.25
2018-11-20T03:56:48.949Z,97923.55
2018-11-20T03:59:44.899Z,97912.08
2018-11-20T04:02:40.879Z,97922.92
2018-11-20T04:05:28.091Z,97923.20
2018-11-20T04:08:19.726Z,97913.30
2018-11-20T04:11:05.248Z,97922.73
2018-11-20T04:13:55.134Z,97921.02
2018-11-20T04:16:41.383Z,97915.47
2018-11-20T04:19:28.534Z,97908.94
2018-11-20T04:22:14.367Z,97917.83
2018-11-20T04:24:59.971Z,97910.66
2018-11-20T04:27:56.566Z,97913.05
2018-11-20T04:31:07.103Z,97906.99
2018-11-20T04:34:11.056Z,97904.31
2018-11-20T04:37:10.196Z,97900.43
2018-11-20T04:40:09.187Z,97897.59
2018-11-20T04:42:56.400Z,97901.09
2018-11-20T04:45:33.084Z,97898.33
2018-11-20T04:48:20.224Z,97897.81
2018-11-20T04:51:19.284Z,97903.45
2018-11-20T04:54:04.993Z,97894.59
2018-11-20T04:56:50.569Z,97889.63
2018-11-20T04:59:36.049Z,97886.83
2018-11-20T05:02:23.211Z,97888.80
2018-11-20T05:05:16.363Z,97892.81
2018-11-20T05:08:06.102Z,97895.17
2018-11-20T05:10:41.842Z,97887.66
2018-11-20T05:13:27.854Z,97896.16
2018-11-20T05:16:15.054Z,97893.48
2018-11-20T05:19:02.723Z,97891.38
2018-11-20T05:22:01.925Z,97887.14
2018-11-20T05:24:49.173Z,97892.05
2018-11-20T05:27:38.836Z,97889.66
2018-11-20T05:30:32.298Z,97887.63
2018-11-20T05:33:19.739Z,97888.00
2018-11-20T05:36:12.719Z,97881.13
2018-11-20T05:39:03.028Z,97893.13
2018-11-20T05:41:53.071Z,97882.81
2018-11-20T05:44:38.795Z,97884.14
2018-11-20T05:47:25.025Z,97894.19
2018-11-20T05:50:14.770Z,97893.58
2018-11-20T05:53:17.065Z,97887.48
2018-11-20T05:56:06.392Z,97892.91
2018-11-20T05:58:57.381Z,97881.53
2018-11-20T06:01:50.355Z,97883.92
2018-11-20T06:04:30.449Z,97887.05
2018-11-20T06:07:29.768Z,97878.09
2018-11-20T06:10:15.429Z,97882.33
2018-11-20T06:13:18.210Z,97881.60
2018-11-20T06:16:05.680Z,97877.62
2018-11-20T06:19:04.743Z,97881.13
2018-11-20T06:21:50.475Z,97879.20
2018-11-20T06:24:36.271Z,97884.72
2018-11-20T06:27:22.100Z,97878.66
2018-11-20T06:30:09.293Z,97872.55
2018-11-20T06:32:55.568Z,97886.16
2018-11-20T06:35:34.079Z,97883.99
2018-11-20T06:38:19.940Z,97888.03
2018-11-20T06:41:06.023Z,97891.70
2018-11-20T06:43:53.604Z,97889.87
2018-11-20T06:46:52.863Z,97890.93
2018-11-20T06:49:38.846Z,97892.30
2018-11-20T06:52:38.376Z,97888.67
2018-11-20T06:55:20.730Z,97900.40
2018-11-20T06:58:23.007Z,97898.20
2018-11-20T07:01:02.114Z,97899.34
2018-11-20T07:03:52.039Z,97898.58
2018-11-20T07:06:56.619Z,97902.05
2018-11-20T07:09:42.769Z,97898.36
2018-11-20T07:12:28.686Z,97899.89
2018-11-20T07:15:24.732Z,97892.59
2018-11-20T07:18:11.549Z,97900.11
2018-11-20T07:21:17.172Z,97900.97
2018-11-20T07:24:07.391Z,97897.56
2018-11-20T07:27:01.846Z,97916.32
2018-11-20T07:29:47.443Z,97906.42
2018-11-20T07:32:50.023Z,97905.94
2018-11-20T07:35:39.333Z,97908.88
2018-11-20T07:38:41.970Z,97918.45
2018-11-20T07:41:27.730Z,97909.22
2018-11-20T07:44:03.600Z,97908.36
2018-11-20T07:46:49.108Z,97910.81
2018-11-20T07:49:35.805Z,97920.02
2018-11-20T07:52:25.959Z,97914.77
2018-11-20T07:55:28.290Z,97913.66
2018-11-20T07:58:14.489Z,97916.88
2018-11-20T08:01:10.315Z,97916.64
2018-11-20T08:03:49.854Z,97916.90
2018-11-20T08:06:35.899Z,97919.09
2018-11-20T08:09:28.176Z,97915.14
2018-11-20T08:12:03.082Z,97914.86
2018-11-20T08:14:49.103Z,97908.27
2018-11-20T08:17:35.192Z,97909.51
2018-11-20T08:20:23.031Z,97915.63
2018-11-20T08:23:08.839Z,97903.83
2018-11-20T08:26:02.488Z,97908.09
2018-11-20T08:28:49.555Z,97925.31
2018-11-20T08:31:39.510Z,97907.56
2018-11-20T08:34:26.821Z,97906.05
2018-11-20T08:37:10.253Z,97897.27
2018-11-20T08:40:06.439Z,97902.50
2018-11-20T08:42:56.216Z,97912.13
2018-11-20T08:45:49.611Z,97896.78
2018-11-20T08:48:35.956Z,97897.27
2018-11-20T08:51:37.995Z,97886.59
2018-11-20T08:54:17.395Z,97887.50
2018-11-20T08:57:00.753Z,97905.57
2018-11-20T08:59:55.639Z,97899.13
2018-11-20T09:02:54.873Z,97906.45
2018-11-20T09:05:40.795Z,97902.02
2018-11-20T09:08:27.296Z,97914.34
2018-11-20T09:11:14.786Z,97906.76
2018-11-20T09:14:01.984Z,97898.06
2018-11-20T09:16:43.675Z,97898.06
2018-11-20T09:19:31.009Z,97904.27
2018-11-20T09:22:21.208Z,97898.34
2018-11-20T09:25:06.879Z,97913.78
2018-11-20T09:28:06.005Z,97910.88
2018-11-20T09:30:58.548Z,97903.08
2018-11-20T09:33:48.311Z,97906.27
2018-11-20T09:36:35.552Z,97907.07
2018-11-20T09:39:25.444Z,97900.77
2018-11-20T09:42:21.924Z,97896.54
2018-11-20T09:45:30.059Z,97891.91
2018-11-20T09:48:35.530Z,97884.88
2018-11-20T09:51:38.090Z,97879.64
2018-11-20T09:54:25.926Z,97880.42
2018-11-20T09:57:15.884Z,97710.75
2018-11-20T10:00:01.500Z,97884.95
2018-11-20T10:03:00.577Z,97882.36
2018-11-20T10:05:47.904Z,97882.36
2018-11-20T10:08:35.566Z,97870.84
2018-11-20T10:11:21.517Z,97870.84
2018-11-20T10:14:08.798Z,97870.05
2018-11-20T10:16:54.757Z,97865.66
2018-11-20T10:19:39.354Z,97870.89
2018-11-20T10:22:32.910Z,97861.20
2018-11-20T10:25:23.485Z,97864.11
2018-11-20T10:28:16.303Z,97856.27
2018-11-20T10:31:03.447Z,97854.20
2018-11-20T10:33:49.592Z,97855.25
2018-11-20T10:36:39.537Z,97854.52
2018-11-20T10:39:31.829Z,97863.69
2018-11-20T10:42:17.789Z,97851.62
2018-11-20T10:45:05.031Z,97855.05
2018-11-20T10:47:51.582Z,97852.91
2018-11-20T10:50:37.621Z,97852.91
2018-11-20T10:53:22.939Z,97862.59
2018-11-20T10:56:16.332Z,97862.59
2018-11-20T10:59:19.269Z,97873.89
2018-11-20T11:02:05.285Z,97875.22
2018-11-20T11:04:51.791Z,97875.22
2018-11-20T11:07:48.362Z,97862.13
2018-11-20T11:10:36.626Z,97875.52
2018-11-20T11:13:23.130Z,97865.05
2018-11-20T11:16:03.356Z,97846.13
2018-11-20T11:19:08.978Z,97882.11
2018-11-20T11:21:58.779Z,97888.88
2018-11-20T11:24:53.353Z,97882.30
2018-11-20T11:27:39.676Z,97877.13
2018-11-20T11:30:28.196Z,97888.41
2018-11-20T11:33:10.812Z,97888.41
2018-11-20T11:35:56.902Z,97864.05
2018-11-20T11:38:46.877Z,97863.27
2018-11-20T11:41:33.864Z,97863.85
2018-11-20T11:44:20.922Z,97863.85
2018-11-20T11:47:07.053Z,97856.77
2018-11-20T11:50:00.909Z,97842.34
2018-11-20T11:52:39.399Z,97836.09
2018-11-20T11:55:24.187Z,97836.09
2018-11-20T11:58:11.126Z,97859.95
2018-11-20T12:00:59.588Z,97857.84
2018-11-20T12:03:37.920Z,97854.41
2018-11-20T12:06:25.882Z,97853.88
2018-11-20T12:09:11.960Z,97853.88
2018-11-20T12:11:58.123Z,97861.48
2018-11-20T12:16:28.430Z,97848.94
2018-11-20T12:19:21.125Z,97848.94
2018-11-20T12:22:17.170Z,97846.89
2018-11-20T12:25:19.336Z,97833.76
2018-11-20T12:28:16.784Z,97833.76
2018-11-20T12:30:53.649Z,97836.36
2018-11-20T12:33:38.386Z,97838.19
2018-11-20T12:36:22.516Z,97831.13
2018-11-20T12:39:08.119Z,97836.41
2018-11-20T12:41:53.997Z,97836.41
2018-11-20T12:44:41.307Z,97832.18
2018-11-20T12:47:31.645Z,97835.61
2018-11-20T12:50:30.900Z,97835.61
2018-11-20T12:53:16.540Z,97833.25
2018-11-20T12:55:58.779Z,97839.55
2018-11-20T12:58:44.522Z,97842.95
2018-11-20T13:01:29.986Z,97842.95
2018-11-20T13:04:25.565Z,97852.41
2018-11-20T13:07:22.944Z,97860.27
2018-11-20T13:10:08.114Z,97860.27
2018-11-20T13:13:00.896Z,97861.32
2018-11-20T13:15:47.110Z,97866.77
2018-11-20T13:18:46.210Z,97866.77
2018-11-20T13:21:51.414Z,97875.93
2018-11-20T13:24:29.561Z,97875.93
2018-11-20T13:27:09.863Z,97863.59
2018-11-20T13:30:00.221Z,97869.67
2018-11-20T13:32:47.946Z,97869.69
2018-11-20T13:35:31.306Z,97870.73
2018-11-20T13:38:16.674Z,97870.73
2018-11-20T13:41:44.771Z,97883.58
2018-11-20T13:44:39.598Z,97895.39
2018-11-20T13:47:19.562Z,97899.05
2018-11-20T13:50:09.793Z,97892.77
2018-11-20T13:52:59.658Z,97902.45
2018-11-20T13:55:46.934Z,97888.03
2018-11-20T13:58:32.789Z,97902.75
2018-11-20T14:01:09.781Z,97902.75
2018-11-20T14:03:53.653Z,97888.60
2018-11-20T14:06:49.557Z,97888.60
2018-11-20T14:09:48.934Z,97877.31
2018-11-20T14:12:34.926Z,97880.47
2018-11-20T14:15:37.022Z,97877.06
2018-11-20T14:18:23.379Z,97877.06
2018-11-20T14:21:08.991Z,97862.62
2018-11-20T14:24:03.164Z,97856.61
2018-11-20T14:26:48.806Z,97839.28
2018-11-20T14:29:37.022Z,97839.28
2018-11-20T14:32:42.504Z,97855.81
2018-11-20T14:35:35.411Z,97861.84
2018-11-20T14:38:31.749Z,97869.71
2018-11-20T14:41:17.508Z,97878.36
2018-11-20T14:44:07.504Z,97873.66
2018-11-20T14:46:53.211Z,97873.66
2018-11-20T14:49:49.423Z,97872.34
2018-11-20T14:52:45.556Z,97872.34
2018-11-20T14:55:27.456Z,97864.45
2018-11-20T14:58:32.926Z,97864.45
2018-11-20T15:01:23.057Z,97847.66
2018-11-20T15:04:22.247Z,97847.66
2018-11-20T15:07:17.361Z,97836.13
2018-11-20T15:10:04.546Z,97829.55
2018-11-20T15:13:00.610Z,97820.92
2018-11-20T15:15:45.169Z,97831.13
2018-11-20T15:18:35.156Z,97843.97
2018-11-20T15:21:22.466Z,97844.47
2018-11-20T15:24:08.088Z,97844.20
2018-11-20T15:27:13.253Z,97855.22
2018-11-20T15:30:01.176Z,97855.22
2018-11-20T15:32:48.469Z,97850.98
2018-11-20T15:35:35.181Z,97850.98
2018-11-20T15:38:19.758Z,97864.81
2018-11-20T15:41:15.908Z,97864.81
2018-11-20T15:43:51.828Z,97874.77
2018-11-20T15:46:39.247Z,97874.77
2018-11-20T15:49:25.104Z,97899.91
2018-11-20T15:52:10.726Z,97899.91
2018-11-20T15:54:56.304Z,97923.77
2018-11-20T15:57:43.981Z,97923.77
2018-11-20T16:00:29.533Z,97923.00
2018-11-20T16:03:15.620Z,97933.69
2018-11-20T16:06:04.256Z,97943.64
2018-11-20T16:08:49.949Z,97937.59
2018-11-20T16:11:37.579Z,97937.59
2018-11-20T16:14:40.007Z,97950.72
2018-11-20T16:17:27.192Z,97951.73
2018-11-20T16:20:13.084Z,97940.95
2018-11-20T16:22:58.571Z,97940.95
2018-11-20T16:25:52.670Z,97933.88
2018-11-20T16:28:38.026Z,97938.09
2018-11-20T16:31:25.531Z,97938.09
2018-11-20T16:34:15.844Z,97945.31
2018-11-20T16:37:03.199Z,97945.31
2018-11-20T16:39:49.454Z,97954.73
2018-11-20T16:42:35.560Z,97952.63
2018-11-20T16:45:21.359Z,97950.25
2018-11-20T16:48:04.252Z,97931.88
2018-11-20T16:50:54.457Z,97913.21
2018-11-20T16:53:44.193Z,97904.23
2018-11-20T16:56:40.781Z,97904.23
2018-11-20T16:59:26.653Z,97906.56
2018-11-20T17:02:16.764Z,97901.00
2018-11-20T17:05:09.976Z,97901.00
2018-11-20T17:07:56.283Z,97907.47
2018-11-20T17:10:37.486Z,97914.50
2018-11-20T17:13:25.731Z,97914.50
2018-11-20T17:16:12.018Z,97923.88
2018-11-20T17:19:00.343Z,97927.87
2018-11-20T17:21:46.282Z,97938.14
2018-11-20T17:24:33.924Z,97944.89
2018-11-20T17:27:33.392Z,97948.52
2018-11-20T17:30:35.692Z,97943.78
2018-11-20T17:33:22.974Z,97943.06
2018-11-20T17:36:09.247Z,97943.06
2018-11-20T17:38:54.944Z,97960.40
2018-11-20T17:41:39.128Z,97954.66
2018-11-20T17:44:18.140Z,97959.19
2018-11-20T17:47:08.054Z,97964.91
2018-11-20T17:50:07.336Z,98002.55
2018-11-20T17:52:56.800Z,98002.55
2018-11-20T17:55:42.778Z,98020.83
2018-11-20T17:58:36.105Z,98020.83
2018-11-20T18:01:28.346Z,98025.02
2018-11-20T18:04:15.090Z,98027.70
2018-11-20T18:07:00.691Z,98021.70
2018-11-20T18:09:46.230Z,98023.89
2018-11-20T18:12:39.635Z,98023.92
2018-11-20T18:15:36.221Z,98028.30
2018-11-20T18:18:25.272Z,98044.20
2018-11-20T18:21:24.084Z,98036.87
2018-11-20T18:24:09.871Z,98036.16
2018-11-20T18:26:57.054Z,98019.72
2018-11-20T18:29:46.730Z,98009.50
2018-11-20T18:32:33.930Z,98009.50
2018-11-20T18:35:23.984Z,98005.65
2018-11-20T18:38:23.143Z,97996.52
2018-11-20T18:41:05.290Z,97994.97
2018-11-20T18:43:54.996Z,98001.23
2018-11-20T18:46:41.106Z,98001.23
2018-11-20T18:49:54.020Z,97997.95
2018-11-20T18:52:43.315Z,97997.95
2018-11-20T18:55:29.464Z,98011.63
2018-11-20T18:58:15.291Z,98020.58
2018-11-20T19:01:07.358Z,98004.80
2018-11-20T19:03:57.286Z,98004.80
2018-11-20T19:06:59.150Z,97999.62
2018-11-20T19:09:48.247Z,98014.25
2018-11-20T19:12:36.887Z,98007.94
2018-11-20T19:15:26.272Z,98007.94
2018-11-20T19:18:19.464Z,98004.83
2018-11-20T19:21:01.990Z,98002.22
2018-11-20T19:24:04.467Z,98014.42
2018-11-20T19:26:49.902Z,98031.55
2018-11-20T19:29:43.198Z,98057.95
2018-11-20T19:32:30.643Z,98051.63
2018-11-20T19:35:35.906Z,98065.20
2018-11-20T19:38:41.313Z,98065.20
2018-11-20T19:41:42.754Z,98064.37
2018-11-20T19:44:32.426Z,98062.81
2018-11-20T19:47:22.999Z,98062.41
2018-11-20T19:50:08.666Z,98062.41
2018-11-20T19:52:52.413Z,98062.95
2018-11-20T19:55:33.356Z,98081.24
2018-11-20T19:58:29.873Z,98098.77
2018-11-20T20:01:19.792Z,98098.77
2018-11-20T20:04:07.151Z,98094.23
2018-11-20T20:06:52.723Z,98095.23
2018-11-20T20:09:38.489Z,98096.56
2018-11-20T20:12:15.931Z,98097.55
2018-11-20T20:15:01.561Z,98097.55
2018-11-20T20:17:54.512Z,98104.34
2018-11-20T20:20:53.529Z,98104.34
2018-11-20T20:23:52.458Z,98090.66
2018-11-20T20:26:42.401Z,98090.66
2018-11-20T20:29:28.502Z,98114.89
2018-11-20T20:32:24.783Z,98136.36
2018-11-20T20:35:10.218Z,98136.36
2018-11-20T20:37:56.087Z,98151.17
2018-11-20T20:40:39.719Z,98154.05
2018-11-20T20:43:41.957Z,98159.05
2018-11-20T20:46:37.963Z,98160.39
2018-11-20T20:49:27.424Z,98168.41
2018-11-20T20:52:17.789Z,98172.30
2018-11-20T20:55:00.980Z,98179.77
2018-11-20T20:57:46.767Z,98189.63
2018-11-20T21:00:32.403Z,98189.63
2018-11-20T21:03:31.708Z,98181.81
2018-11-20T21:06:17.576Z,98172.33
2018-11-20T21:09:20.059Z,98174.22
2018-11-20T21:12:15.876Z,98161.36
2018-11-20T21:15:20.887Z,98149.58
2018-11-20T21:18:02.313Z,98154.23
2018-11-20T21:20:47.893Z,98158.16
2018-11-20T21:23:47.097Z,98151.39
2018-11-20T21:26:43.281Z,98090.92
2018-11-20T21:29:31.660Z,98090.92
2018-11-20T21:32:17.319Z,98108.95
2018-11-20T21:35:04.809Z,98126.47
2018-11-20T21:37:50.490Z,98144.56
2018-11-20T21:40:36.387Z,98134.92
2018-11-20T21:43:26.021Z,98120.11
2018-11-20T21:46:16.179Z,98143.69
2018-11-20T21:49:01.860Z,98158.22
2018-11-20T21:51:42.597Z,98165.73
2018-11-20T21:54:28.859Z,98170.85
2018-11-20T21:57:19.059Z,98179.92
2018-11-20T22:00:11.518Z,98185.53
2018-11-20T22:03:02.031Z,98178.66
2018-11-20T22:05:57.899Z,98167.19
2018-11-20T22:08:47.966Z,98167.19
2018-11-20T22:11:33.511Z,98172.41
2018-11-20T22:14:19.378Z,98184.11
2018-11-20T22:17:07.824Z,98185.88
2018-11-20T22:19:53.432Z,98198.56
2018-11-20T22:22:58.566Z,98208.05
2018-11-20T22:25:44.465Z,98220.72
2018-11-20T22:28:33.796Z,98215.34
2018-11-20T22:31:24.312Z,98216.36
2018-11-20T22:34:26.603Z,98206.05
2018-11-20T22:37:12.697Z,98212.19
2018-11-20T22:40:07.311Z,98219.11
2018-11-20T22:42:52.843Z,98217.36
2018-11-20T22:45:38.241Z,98202.95
2018-11-20T22:48:24.011Z,98207.88
2018-11-20T22:51:11.454Z,98202.41
2018-11-20T22:53:48.020Z,98184.69
2018-11-20T22:56:31.771Z,98190.61
2018-11-20T22:59:30.955Z,98195.69
2018-11-20T23:02:18.270Z,98188.53
2018-11-20T23:05:03.862Z,98194.62
2018-11-20T23:07:44.438Z,98188.26
2018-11-20T23:10:13.929Z,98193.19
2018-11-20T23:12:43.152Z,98194.66
2018-11-20T23:15:12.840Z,98195.70
2018-11-20T23:17:40.922Z,98185.14
2018-11-20T23:20:09.915Z,98199.56
2018-11-20T23:22:38.296Z,98197.50
2018-11-20T23:25:07.693Z,98203.66
2018-11-20T23:27:36.184Z,98203.45
2018-11-20T23:30:05.467Z,98206.09
2018-11-20T23:32:33.884Z,98195.46
2018-11-20T23:35:01.950Z,98190.16
2018-11-20T23:37:30.073Z,98206.55
2018-11-20T23:39:58.147Z,98204.41
2018-11-20T23:42:26.248Z,98200.71
2018-11-20T23:44:54.273Z,98207.91
2018-11-20T23:47:22.363Z,98204.59
2018-11-20T23:49:50.569Z,98035.47
2018-11-20T23:52:27.169Z,98214.23
2018-11-20T23:54:56.218Z,98210.61
2018-11-20T23:57:24.897Z,98216.39
2018-11-20T23:59:54.376Z,98202.61
